Time;durP1;ratioP1;P1;durP2;ratioP2;P2;SDS_P1;SDS_P2;PMS_P1;PMS_P2;Temp;Humidity;BMP_temperature;BMP_pressure;BME280_temperature;BME280_humidity;BME280_pressure;Samples;Min_cycle;Max_cycle;Signal;HPM_P1;HPM_P2
2022/04/12 00:00:40;;;;;;;13.65;4.95;;;6.70;99.90;;;;;;4880213;29;20092;-74
2022/04/12 00:03:07;;;;;;;11.43;4.00;;;6.90;99.90;;;;;;4897269;29;20418;-75
2022/04/12 00:05:37;;;;;;;11.20;4.28;;;6.90;99.90;;;;;;4896983;29;20497;-75
2022/04/12 00:08:04;;;;;;;10.23;3.80;;;6.70;99.90;;;;;;4897156;29;20095;-75
2022/04/12 00:10:31;;;;;;;11.50;4.25;;;6.60;99.90;;;;;;4897228;29;20060;-72
2022/04/12 00:12:58;;;;;;;12.15;4.05;;;6.70;99.90;;;;;;4897075;29;20041;-70
2022/04/12 00:15:24;;;;;;;12.10;4.60;;;6.60;99.90;;;;;;4897747;29;20127;-76
2022/04/12 00:20:34;;;;;;;13.48;4.72;;;6.90;99.90;;;;;;4900542;29;20099;-70
2022/04/12 00:23:01;;;;;;;9.65;3.95;;;6.60;99.90;;;;;;4900828;29;20049;-70
2022/04/12 00:25:28;;;;;;;9.90;4.38;;;6.60;99.90;;;;;;4900540;29;20550;-73
2022/04/12 00:27:55;;;;;;;9.20;4.03;;;6.70;99.90;;;;;;4900683;29;20044;-70
2022/04/12 00:30:22;;;;;;;11.30;4.70;;;6.50;99.90;;;;;;4883311;29;20045;-72
2022/04/12 00:32:50;;;;;;;10.27;4.13;;;6.50;99.90;;;;;;4883552;29;20424;-74
2022/04/12 00:35:17;;;;;;;12.20;4.72;;;6.50;99.90;;;;;;4900498;29;20096;-70
2022/04/12 00:37:43;;;;;;;11.27;4.53;;;6.40;99.90;;;;;;4900683;29;20044;-73
2022/04/12 00:40:09;;;;;;;13.38;4.68;;;6.40;99.90;;;;;;4900645;29;20485;-74
2022/04/12 00:42:35;;;;;;;10.57;4.30;;;6.30;99.90;;;;;;4883566;29;20071;-73
2022/04/12 00:45:01;;;;;;;9.10;4.43;;;6.30;99.90;;;;;;4900289;29;20493;-75
2022/04/12 00:47:26;;;;;;;9.93;4.53;;;6.30;99.90;;;;;;4883123;29;20473;-69
2022/04/12 00:49:52;;;;;;;10.57;4.60;;;6.30;99.90;;;;;;4883458;29;20052;-71
2022/04/12 00:52:19;;;;;;;10.20;4.82;;;6.30;99.90;;;;;;4900133;29;20052;-74
2022/04/12 00:54:45;;;;;;;12.00;4.45;;;6.30;99.90;;;;;;4900380;29;20048;-73
2022/04/12 00:57:12;;;;;;;10.00;4.68;;;6.30;99.90;;;;;;4883100;29;20061;-70
2022/04/12 00:59:38;;;;;;;10.10;4.93;;;6.30;99.90;;;;;;4883348;29;20041;-70
2022/04/12 01:02:07;;;;;;;10.50;4.80;;;6.30;99.90;;;;;;4867333;29;20057;-74
2022/04/12 01:04:33;;;;;;;12.27;5.05;;;6.50;99.90;;;;;;4882723;29;20040;-72
2022/04/12 01:07:02;;;;;;;13.00;4.88;;;6.30;99.90;;;;;;4882927;29;20040;-71
2022/04/12 01:09:28;;;;;;;13.38;5.15;;;6.30;99.90;;;;;;4900144;29;20084;-70
2022/04/12 01:11:56;;;;;;;10.70;5.35;;;6.30;99.90;;;;;;4883028;29;20087;-73
2022/04/12 01:14:23;;;;;;;12.40;5.22;;;6.30;99.90;;;;;;4899952;29;20041;-71
2022/04/12 01:16:50;;;;;;;10.10;4.40;;;6.30;99.90;;;;;;4882902;29;20048;-72
2022/04/12 01:19:16;;;;;;;10.25;4.65;;;6.30;99.90;;;;;;4899393;29;20055;-70
2022/04/12 01:21:56;;;;;;;12.20;5.07;;;6.30;99.90;;;;;;4899384;29;20041;-71
2022/04/12 01:24:22;;;;;;;12.90;5.18;;;6.20;99.90;;;;;;4882718;29;20057;-69
2022/04/12 01:26:48;;;;;;;10.73;4.97;;;6.20;99.90;;;;;;4881696;29;20483;-71
2022/04/12 01:29:14;;;;;;;14.43;5.22;;;6.20;99.90;;;;;;4899596;29;20124;-71
2022/04/12 01:31:40;;;;;;;13.07;5.32;;;6.20;99.90;;;;;;4899189;29;20057;-72
2022/04/12 01:34:06;;;;;;;11.13;5.45;;;6.20;99.90;;;;;;4866890;29;20056;-71
2022/04/12 01:36:32;;;;;;;11.45;5.40;;;6.20;99.90;;;;;;4898892;29;20048;-71
2022/04/12 01:38:57;;;;;;;11.93;5.30;;;6.10;99.90;;;;;;4882767;29;20084;-70
2022/04/12 01:41:23;;;;;;;12.13;5.63;;;6.10;99.90;;;;;;4867025;29;20539;-72
2022/04/12 01:43:48;;;;;;;11.85;5.47;;;6.10;99.90;;;;;;4882631;29;20056;-75
2022/04/12 01:46:14;;;;;;;12.15;5.15;;;6.10;99.90;;;;;;4882386;29;20095;-73
2022/04/12 01:48:40;;;;;;;13.35;5.55;;;6.10;99.90;;;;;;4882384;29;20147;-71
2022/04/12 01:51:05;;;;;;;14.18;4.95;;;6.00;99.90;;;;;;4881825;29;20556;-74
2022/04/12 01:53:31;;;;;;;13.27;5.47;;;6.00;99.90;;;;;;4899210;29;20136;-74
2022/04/12 01:55:57;;;;;;;11.52;5.32;;;6.00;99.90;;;;;;4882332;29;20056;-74
2022/04/12 01:58:23;;;;;;;16.35;4.88;;;6.00;99.90;;;;;;4899218;29;20176;-71
2022/04/12 02:00:48;;;;;;;13.30;5.22;;;6.00;99.90;;;;;;4899169;29;20044;-70
2022/04/12 02:03:14;;;;;;;10.88;4.93;;;6.00;99.90;;;;;;4882193;29;20055;-75
2022/04/12 02:05:39;;;;;;;13.25;5.70;;;5.90;99.90;;;;;;4881892;29;20079;-74
2022/04/12 02:08:07;;;;;;;12.30;5.53;;;5.90;99.90;;;;;;4898501;29;20397;-75
2022/04/12 02:10:33;;;;;;;11.80;5.60;;;5.90;99.90;;;;;;4881903;29;20064;-74
2022/04/12 02:12:58;;;;;;;15.07;5.65;;;5.90;99.90;;;;;;4898695;29;20052;-75
2022/04/12 02:15:24;;;;;;;11.95;5.68;;;5.90;99.90;;;;;;4881936;29;20052;-71
2022/04/12 02:17:49;;;;;;;11.57;5.65;;;5.90;99.90;;;;;;4881663;29;20402;-71
2022/04/12 02:20:15;;;;;;;13.23;5.95;;;6.10;99.90;;;;;;4898681;29;20442;-70
2022/04/12 02:22:41;;;;;;;13.48;5.80;;;5.90;99.90;;;;;;4898134;29;20059;-73
2022/04/12 02:25:07;;;;;;;15.02;5.45;;;5.90;99.90;;;;;;4881429;29;20049;-74
2022/04/12 02:27:32;;;;;;;12.70;6.53;;;5.90;99.90;;;;;;4898353;29;20466;-70
2022/04/12 02:29:58;;;;;;;12.43;5.70;;;5.90;99.90;;;;;;4881675;29;20044;-71
2022/04/12 02:32:24;;;;;;;12.07;5.70;;;5.90;99.90;;;;;;4898496;29;20107;-71
2022/04/12 02:34:49;;;;;;;13.80;5.53;;;6.30;99.90;;;;;;4881971;29;20056;-70
2022/04/12 02:37:15;;;;;;;13.15;5.70;;;6.30;99.90;;;;;;4881686;29;20509;-69
2022/04/12 02:39:41;;;;;;;12.57;5.40;;;5.80;99.90;;;;;;4897701;29;20044;-70
2022/04/12 02:42:07;;;;;;;13.38;6.35;;;5.80;99.90;;;;;;4881393;29;20123;-70
2022/04/12 02:44:32;;;;;;;13.95;6.25;;;5.80;99.90;;;;;;4898210;29;20055;-74
2022/04/12 02:46:58;;;;;;;11.38;6.20;;;5.80;99.90;;;;;;4898157;29;20059;-71
2022/04/12 02:49:23;;;;;;;14.23;6.45;;;5.70;99.90;;;;;;4881486;29;20091;-74
2022/04/12 02:51:51;;;;;;;12.45;5.90;;;5.80;99.90;;;;;;4898138;29;20044;-74
2022/04/12 02:54:17;;;;;;;11.68;6.15;;;5.80;99.90;;;;;;4898073;29;20135;-74
2022/04/12 02:56:43;;;;;;;12.70;6.05;;;6.00;99.90;;;;;;4880896;29;20060;-74
2022/04/12 02:59:09;;;;;;;14.50;6.05;;;5.80;99.90;;;;;;4881037;29;20058;-75
2022/04/12 03:01:34;;;;;;;13.90;6.63;;;5.70;99.90;;;;;;4881403;29;20055;-69
2022/04/12 03:04:00;;;;;;;12.10;6.20;;;5.70;99.90;;;;;;4865687;29;20040;-73
2022/04/12 03:06:26;;;;;;;12.73;6.10;;;5.70;99.90;;;;;;4897928;29;20476;-72
2022/04/12 03:08:52;;;;;;;11.77;6.00;;;5.70;99.90;;;;;;4897740;29;20041;-71
2022/04/12 03:11:17;;;;;;;12.05;6.18;;;5.70;99.90;;;;;;4897373;29;20047;-72
2022/04/12 03:13:43;;;;;;;14.00;6.53;;;5.60;99.90;;;;;;4880875;29;20501;-70
2022/04/12 03:16:08;;;;;;;13.82;5.90;;;6.30;99.90;;;;;;4881146;29;20485;-74
2022/04/12 03:18:34;;;;;;;13.10;6.38;;;5.60;99.90;;;;;;4897843;29;20049;-71
2022/04/12 03:21:00;;;;;;;12.75;6.03;;;5.60;99.90;;;;;;4880919;29;20072;-75
2022/04/12 03:23:25;;;;;;;15.57;6.90;;;5.60;99.90;;;;;;4880649;29;20056;-75
2022/04/12 03:25:51;;;;;;;15.57;6.22;;;5.50;99.90;;;;;;4880609;29;20083;-74
2022/04/12 03:28:17;;;;;;;11.82;6.22;;;5.50;99.90;;;;;;4880280;29;20053;-71
2022/04/12 03:30:42;;;;;;;12.25;6.47;;;5.50;99.90;;;;;;4880271;29;20468;-72
2022/04/12 03:33:08;;;;;;;13.82;6.63;;;5.50;99.90;;;;;;4897604;29;20044;-73
2022/04/12 03:35:34;;;;;;;13.48;6.90;;;5.40;99.90;;;;;;4880844;29;20045;-74
2022/04/12 03:38:01;;;;;;;14.13;6.72;;;6.10;99.90;;;;;;4897478;29;20063;-71
2022/04/12 03:40:31;;;;;;;13.70;7.30;;;5.40;99.90;;;;;;4880638;29;20552;-72
2022/04/12 03:43:01;;;;;;;14.00;6.38;;;5.40;99.90;;;;;;4896982;29;20048;-72
2022/04/12 03:45:28;;;;;;;13.90;6.57;;;5.40;99.90;;;;;;4897108;29;20048;-74
2022/04/12 03:47:54;;;;;;;14.18;7.03;;;5.40;99.90;;;;;;4897473;29;20049;-73
2022/04/12 03:50:20;;;;;;;15.20;6.80;;;5.40;99.90;;;;;;4898585;29;20408;-72
2022/04/12 03:52:46;;;;;;;13.25;6.75;;;5.80;99.90;;;;;;4884331;29;20056;-75
2022/04/12 03:55:12;;;;;;;13.85;6.78;;;5.40;99.90;;;;;;4884503;29;20056;-74
2022/04/12 03:57:37;;;;;;;17.00;7.40;;;5.40;99.90;;;;;;4901301;29;20522;-74
2022/04/12 04:00:08;;;;;;;14.23;6.93;;;5.40;99.90;;;;;;4900714;29;20475;-70
2022/04/12 04:02:37;;;;;;;12.57;6.70;;;5.40;99.90;;;;;;4901218;29;20084;-70
2022/04/12 04:05:04;;;;;;;13.05;7.10;;;5.30;99.90;;;;;;4884187;29;20378;-71
2022/04/12 04:07:30;;;;;;;15.55;7.10;;;5.30;99.90;;;;;;4900939;29;20128;-73
2022/04/12 04:09:55;;;;;;;14.63;7.88;;;5.40;99.90;;;;;;4901253;29;20444;-73
2022/04/12 04:12:22;;;;;;;15.50;7.95;;;5.40;99.90;;;;;;4884352;29;20128;-71
2022/04/12 04:14:48;;;;;;;13.50;7.07;;;5.40;99.90;;;;;;4883983;29;20060;-72
2022/04/12 04:17:14;;;;;;;14.18;7.75;;;5.40;99.90;;;;;;4900770;29;20053;-72
2022/04/12 04:19:40;;;;;;;15.90;7.93;;;5.30;99.90;;;;;;4883973;29;20116;-71
2022/04/12 04:22:05;;;;;;;14.60;7.25;;;5.30;99.90;;;;;;4883851;29;20075;-71
2022/04/12 04:24:31;;;;;;;17.23;7.10;;;5.40;99.90;;;;;;4900647;29;20485;-71
2022/04/12 04:26:57;;;;;;;13.15;6.70;;;5.40;99.90;;;;;;4883862;29;20048;-72
2022/04/12 04:29:24;;;;;;;15.43;7.60;;;5.40;99.90;;;;;;4900971;29;20036;-73
2022/04/12 04:31:51;;;;;;;13.88;6.07;;;5.30;99.90;;;;;;4899990;29;20192;-72
2022/04/12 04:34:17;;;;;;;12.95;6.45;;;5.50;99.90;;;;;;4883650;29;20056;-75
2022/04/12 04:36:43;;;;;;;14.45;6.45;;;5.40;99.90;;;;;;4900527;29;20144;-71
2022/04/12 04:39:08;;;;;;;15.88;6.50;;;5.40;99.90;;;;;;4883892;29;20102;-71
2022/04/12 04:41:34;;;;;;;16.85;6.20;;;5.40;99.90;;;;;;4900436;29;20115;-73
2022/04/12 04:44:00;;;;;;;14.23;5.75;;;5.40;99.90;;;;;;4900359;29;20064;-72
2022/04/12 04:46:26;;;;;;;16.48;6.43;;;5.40;99.90;;;;;;4883062;29;20494;-72
2022/04/12 04:48:51;;;;;;;17.25;6.95;;;5.40;99.90;;;;;;4883156;29;20043;-70
2022/04/12 04:51:17;;;;;;;12.20;5.75;;;5.40;99.90;;;;;;4883375;29;20604;-72
2022/04/12 04:53:49;;;;;;;12.98;6.15;;;5.40;99.90;;;;;;4900192;29;20233;-75
2022/04/12 04:56:14;;;;;;;14.18;5.50;;;5.40;99.90;;;;;;4883448;29;20097;-74
2022/04/12 04:58:40;;;;;;;13.82;6.10;;;5.40;99.90;;;;;;4900159;29;20052;-72
2022/04/12 05:01:06;;;;;;;15.55;5.90;;;5.40;99.90;;;;;;4883201;29;20553;-74
2022/04/12 05:03:31;;;;;;;13.77;6.00;;;5.40;99.90;;;;;;4882742;29;20044;-72
2022/04/12 05:05:57;;;;;;;12.95;5.88;;;5.40;99.90;;;;;;4899880;29;20088;-74
2022/04/12 05:08:23;;;;;;;12.50;5.85;;;5.40;99.90;;;;;;4882980;29;20124;-70
2022/04/12 05:10:50;;;;;;;11.73;5.25;;;5.40;99.90;;;;;;4883342;29;20523;-67
2022/04/12 05:13:16;;;;;;;16.05;6.10;;;5.40;99.90;;;;;;4899996;29;20135;-72
2022/04/12 05:15:42;;;;;;;13.60;5.65;;;5.40;99.90;;;;;;4882910;29;20080;-70
2022/04/12 05:18:08;;;;;;;15.27;5.68;;;5.40;99.90;;;;;;4899845;29;20056;-72
2022/04/12 05:20:34;;;;;;;19.63;6.35;;;5.40;99.90;;;;;;4882730;29;20044;-71
2022/04/12 05:23:00;;;;;;;17.90;6.45;;;5.40;99.90;;;;;;4883063;29;20048;-68
2022/04/12 05:25:25;;;;;;;17.55;6.43;;;5.30;99.90;;;;;;4882228;29;20064;-74
2022/04/12 05:27:51;;;;;;;16.83;6.97;;;5.30;99.90;;;;;;4878506;29;20052;-71
2022/04/12 05:30:17;;;;;;;13.70;6.28;;;5.40;99.90;;;;;;4898088;29;20512;-69
2022/04/12 05:32:47;;;;;;;13.00;6.13;;;5.30;99.90;;;;;;4898756;29;20061;-71
2022/04/12 05:35:13;;;;;;;15.13;6.63;;;5.30;99.90;;;;;;4898190;29;20049;-72
2022/04/12 05:37:49;;;;;;;13.82;6.22;;;5.30;99.90;;;;;;4898719;29;20051;-72
2022/04/12 05:40:15;;;;;;;16.10;6.13;;;5.30;99.90;;;;;;4881691;29;20065;-73
2022/04/12 05:42:42;;;;;;;14.75;7.05;;;5.30;99.90;;;;;;4898569;29;20076;-73
2022/04/12 05:45:09;;;;;;;13.63;5.40;;;5.30;99.90;;;;;;4899359;29;20056;-76
2022/04/12 05:47:51;;;;;;;15.10;6.07;;;5.30;99.90;;;;;;4898823;29;20074;-76
2022/04/12 05:50:20;;;;;;;13.55;5.90;;;5.40;99.90;;;;;;4866089;29;20386;-76
2022/04/12 05:52:45;;;;;;;15.30;6.32;;;5.40;99.90;;;;;;4898310;29;20116;-73
2022/04/12 05:55:17;;;;;;;14.05;5.95;;;5.40;99.90;;;;;;4898040;29;20052;-75
2022/04/12 05:57:52;;;;;;;13.07;6.13;;;5.50;99.90;;;;;;4898269;29;20091;-75
2022/04/12 06:00:22;;;;;;;14.13;5.93;;;5.50;99.90;;;;;;4897966;29;20104;-76
2022/04/12 06:02:49;;;;;;;12.05;5.10;;;5.60;99.90;;;;;;4881230;29;20049;-75
2022/04/12 06:05:15;;;;;;;11.60;5.28;;;5.80;99.90;;;;;;4898589;29;20067;-75
2022/04/12 06:07:42;;;;;;;16.75;6.40;;;5.90;99.90;;;;;;4898573;29;20485;-73
2022/04/12 06:10:10;;;;;;;13.73;5.22;;;6.20;99.90;;;;;;4898932;29;20048;-75
2022/04/12 06:12:36;;;;;;;11.60;5.20;;;6.10;99.90;;;;;;4881123;29;20056;-76
2022/04/12 06:15:03;;;;;;;14.85;6.28;;;6.30;99.90;;;;;;4898142;29;20137;-72
2022/04/12 06:17:30;;;;;;;12.63;5.65;;;6.40;99.90;;;;;;4897834;29;20100;-72
2022/04/12 06:20:06;;;;;;;14.32;5.65;;;6.60;99.90;;;;;;4895798;29;20128;-71
2022/04/12 06:22:32;;;;;;;16.00;5.93;;;6.70;99.90;;;;;;4897145;29;20432;-71
2022/04/12 06:24:58;;;;;;;15.05;6.00;;;6.80;99.90;;;;;;4897594;29;20072;-71
2022/04/12 06:27:31;;;;;;;12.52;5.45;;;6.80;99.90;;;;;;4897329;29;20107;-71
2022/04/12 06:29:57;;;;;;;14.52;5.82;;;6.90;99.90;;;;;;4897865;29;20138;-72
2022/04/12 06:32:24;;;;;;;14.88;5.68;;;7.00;99.90;;;;;;4880459;29;20064;-72
2022/04/12 06:34:49;;;;;;;16.42;6.53;;;7.00;99.90;;;;;;4880859;29;20877;-71
2022/04/12 06:37:15;;;;;;;15.18;5.70;;;7.10;99.90;;;;;;4897290;29;20135;-73
2022/04/12 06:39:40;;;;;;;13.82;5.82;;;7.30;99.90;;;;;;4880107;29;20053;-71
2022/04/12 06:42:07;;;;;;;14.20;6.03;;;7.10;99.90;;;;;;4880114;29;20052;-71
2022/04/12 06:44:33;;;;;;;14.75;6.07;;;7.20;99.90;;;;;;4897748;29;20060;-73
2022/04/12 06:46:59;;;;;;;13.90;6.00;;;7.40;99.90;;;;;;4897261;29;20417;-71
2022/04/12 06:49:24;;;;;;;12.20;5.85;;;7.30;99.90;;;;;;4880324;29;20044;-72
2022/04/12 06:51:50;;;;;;;13.30;6.07;;;7.40;99.90;;;;;;4900079;29;20052;-70
2022/04/12 06:54:15;;;;;;;15.60;6.97;;;7.50;99.90;;;;;;4914053;29;20055;-72
2022/04/12 06:56:41;;;;;;;12.98;5.72;;;7.50;99.90;;;;;;4916235;29;20051;-70
2022/04/12 06:59:07;;;;;;;14.55;6.07;;;7.60;99.90;;;;;;4883105;29;20052;-71
2022/04/12 07:01:32;;;;;;;13.35;5.43;;;7.60;99.90;;;;;;4898889;29;20048;-73
2022/04/12 07:03:58;;;;;;;15.27;6.00;;;7.60;99.90;;;;;;4915963;29;20506;-72
2022/04/12 07:06:23;;;;;;;12.02;5.22;;;7.70;99.90;;;;;;4913925;29;20048;-74
2022/04/12 07:08:49;;;;;;;13.38;5.78;;;7.70;99.90;;;;;;4897201;29;20096;-72
2022/04/12 07:11:15;;;;;;;11.45;5.53;;;7.80;99.90;;;;;;4896417;29;20044;-74
2022/04/12 07:13:40;;;;;;;14.27;6.18;;;7.80;99.90;;;;;;4880229;29;20457;-72
2022/04/12 07:16:06;;;;;;;14.55;6.45;;;7.90;99.90;;;;;;4896718;29;20389;-72
2022/04/12 07:18:32;;;;;;;14.02;6.22;;;8.00;99.90;;;;;;4897314;29;20481;-72
2022/04/12 07:20:57;;;;;;;15.38;5.93;;;8.20;99.90;;;;;;4896679;29;20048;-72
2022/04/12 07:23:23;;;;;;;12.65;5.57;;;8.20;99.90;;;;;;4896792;29;20040;-74
2022/04/12 07:25:49;;;;;;;14.25;5.82;;;8.10;99.90;;;;;;4884558;29;20048;-69
2022/04/12 07:28:16;;;;;;;14.68;5.65;;;8.10;99.90;;;;;;4914870;29;20508;-70
2022/04/12 07:30:41;;;;;;;17.05;6.97;;;8.20;99.90;;;;;;4915571;29;20130;-69
2022/04/12 07:33:07;;;;;;;12.98;5.50;;;8.20;99.90;;;;;;4915328;29;20555;-70
2022/04/12 07:35:33;;;;;;;16.17;5.75;;;8.20;99.90;;;;;;4915166;29;20115;-70
2022/04/12 07:37:58;;;;;;;14.05;5.68;;;8.20;99.90;;;;;;4898642;29;20060;-70
2022/04/12 07:40:24;;;;;;;14.75;6.43;;;8.20;99.90;;;;;;4898374;29;20040;-71
2022/04/12 07:42:49;;;;;;;14.75;5.30;;;8.20;99.90;;;;;;4915246;29;20074;-69
2022/04/12 07:45:15;;;;;;;12.70;5.63;;;8.30;99.90;;;;;;4914878;29;20087;-69
2022/04/12 07:47:41;;;;;;;13.52;5.60;;;8.30;99.90;;;;;;4891343;29;20088;-69
2022/04/12 07:50:07;;;;;;;14.18;6.18;;;8.40;99.90;;;;;;4902949;29;20108;-71
2022/04/12 07:52:32;;;;;;;15.07;6.15;;;8.60;99.90;;;;;;4886981;29;20139;-70
2022/04/12 07:54:58;;;;;;;12.52;5.82;;;8.90;99.90;;;;;;4896715;29;20074;-70
2022/04/12 07:57:27;;;;;;;15.30;6.20;;;8.80;99.90;;;;;;4896501;29;20044;-70
2022/04/12 07:59:52;;;;;;;14.00;6.20;;;9.00;99.90;;;;;;4896224;29;20052;-70
2022/04/12 08:02:18;;;;;;;12.25;5.60;;;9.20;99.90;;;;;;4896196;29;20045;-70
2022/04/12 08:04:44;;;;;;;12.80;5.55;;;9.40;99.90;;;;;;4879394;29;20052;-69
2022/04/12 08:07:10;;;;;;;13.23;6.07;;;9.50;99.90;;;;;;4895797;29;20080;-69
2022/04/12 08:09:35;;;;;;;11.88;5.63;;;9.70;99.90;;;;;;4879904;29;20098;-68
2022/04/12 08:12:01;;;;;;;11.93;6.18;;;9.80;99.90;;;;;;4896733;29;20064;-70
2022/04/12 08:14:27;;;;;;;13.38;6.15;;;9.90;99.90;;;;;;4896241;29;20125;-70
2022/04/12 08:16:53;;;;;;;16.70;5.80;;;10.10;99.90;;;;;;4879021;29;20477;-70
2022/04/12 08:19:18;;;;;;;13.65;5.53;;;10.20;99.90;;;;;;4879027;29;20085;-69
2022/04/12 08:21:44;;;;;;;15.07;6.80;;;10.30;99.90;;;;;;4895711;29;20409;-69
2022/04/12 08:24:10;;;;;;;19.92;6.53;;;10.40;99.90;;;;;;4895654;29;20457;-69
2022/04/12 08:26:36;;;;;;;12.52;6.18;;;10.50;99.90;;;;;;4896305;29;20127;-67
2022/04/12 08:29:02;;;;;;;12.88;5.43;;;10.70;99.90;;;;;;4896369;29;20056;-73
2022/04/12 08:31:28;;;;;;;12.38;5.63;;;10.80;99.90;;;;;;4895126;29;20088;-70
2022/04/12 08:33:54;;;;;;;11.82;5.13;;;10.90;99.90;;;;;;4879409;29;20098;-72
2022/04/12 08:36:22;;;;;;;12.40;5.88;;;11.10;99.90;;;;;;4896718;29;20080;-69
2022/04/12 08:38:51;;;;;;;12.45;5.97;;;11.20;99.90;;;;;;4899979;29;20047;-71
2022/04/12 08:41:19;;;;;;;12.63;5.68;;;11.30;99.90;;;;;;4898810;29;20059;-69
2022/04/12 08:43:45;;;;;;;12.55;5.70;;;11.40;99.90;;;;;;4899612;29;20497;-71
2022/04/12 08:46:11;;;;;;;15.50;6.38;;;11.60;99.90;;;;;;4882452;29;20056;-70
2022/04/12 08:48:38;;;;;;;11.95;5.72;;;11.70;99.90;;;;;;4898913;29;20635;-70
2022/04/12 08:51:05;;;;;;;11.52;4.88;;;11.90;99.90;;;;;;4899257;29;20049;-70
2022/04/12 08:53:31;;;;;;;13.80;5.70;;;11.90;99.90;;;;;;4882706;29;20233;-72
2022/04/12 08:55:57;;;;;;;12.05;5.30;;;12.00;99.90;;;;;;4882577;29;20056;-70
2022/04/12 08:58:23;;;;;;;11.13;4.90;;;12.10;99.90;;;;;;4882626;29;20575;-70
2022/04/12 09:00:50;;;;;;;12.02;5.65;;;12.20;99.90;;;;;;4882301;29;20065;-70
2022/04/12 09:03:15;;;;;;;12.05;5.47;;;12.30;99.90;;;;;;4898686;29;20083;-71
2022/04/12 09:05:41;;;;;;;13.93;5.65;;;12.40;99.90;;;;;;4882332;29;20056;-71
2022/04/12 09:08:27;;;;;;;13.45;5.55;;;12.50;99.90;;;;;;4898900;29;20048;-69
2022/04/12 09:10:58;;;;;;;11.95;4.95;;;12.70;99.90;;;;;;4882287;29;20056;-67
2022/04/12 09:13:24;;;;;;;16.77;5.97;;;12.70;99.90;;;;;;4898616;29;20381;-70
2022/04/12 09:15:50;;;;;;;12.98;5.35;;;12.90;99.90;;;;;;4881981;29;20069;-71
2022/04/12 09:18:31;;;;;;;13.00;5.55;;;13.00;99.90;;;;;;4898409;29;20519;-69
2022/04/12 09:21:16;;;;;;;10.70;4.60;;;13.20;99.90;;;;;;4897896;29;20079;-70
2022/04/12 09:23:42;;;;;;;12.50;5.60;;;13.30;99.90;;;;;;4899011;29;20045;-70
2022/04/12 09:26:08;;;;;;;12.43;5.72;;;13.50;99.90;;;;;;4881785;29;20057;-69
2022/04/12 09:28:41;;;;;;;12.90;5.75;;;13.60;99.90;;;;;;4898967;29;20451;-70
2022/04/12 09:31:15;;;;;;;10.77;5.32;;;13.80;99.90;;;;;;4898430;29;20408;-68
2022/04/12 09:33:42;;;;;;;15.25;5.40;;;13.90;99.90;;;;;;4881593;29;20113;-70
2022/04/12 09:36:08;;;;;;;12.30;5.25;;;14.00;99.90;;;;;;4898011;29;20096;-69
2022/04/12 09:38:39;;;;;;;14.20;5.55;;;14.20;99.90;;;;;;4898651;29;20052;-70
2022/04/12 09:41:15;;;;;;;11.85;5.30;;;14.20;99.90;;;;;;4898449;29;20405;-73
2022/04/12 09:44:05;;;;;;;14.73;6.10;;;14.40;99.90;;;;;;4881490;29;20064;-72
2022/04/12 09:46:31;;;;;;;12.45;6.05;;;14.40;99.40;;;;;;4898593;29;20055;-73
2022/04/12 09:48:57;;;;;;;12.07;5.75;;;14.50;99.00;;;;;;4880814;29;20481;-73
2022/04/12 09:51:23;;;;;;;11.85;5.03;;;14.70;99.60;;;;;;4895978;29;20112;-71
2022/04/12 09:53:50;;;;;;;14.32;6.03;;;14.70;99.40;;;;;;4881413;29;20045;-71
2022/04/12 09:56:24;;;;;;;13.27;6.15;;;14.80;99.50;;;;;;4897646;29;20044;-72
2022/04/12 09:58:52;;;;;;;13.07;6.10;;;14.90;99.70;;;;;;4898686;29;20061;-72
2022/04/12 10:01:19;;;;;;;12.68;5.45;;;15.00;99.30;;;;;;4881287;29;20525;-72
2022/04/12 10:03:47;;;;;;;15.15;6.15;;;15.10;99.30;;;;;;4898289;29;20051;-73
2022/04/12 10:06:16;;;;;;;12.40;6.32;;;15.10;97.50;;;;;;4897504;29;20048;-72
2022/04/12 10:08:43;;;;;;;13.00;5.88;;;15.20;97.50;;;;;;4880360;29;20144;-72
2022/04/12 10:11:12;;;;;;;14.48;6.75;;;15.10;96.20;;;;;;4880851;29;20408;-71
2022/04/12 10:13:38;;;;;;;14.68;5.88;;;15.20;94.80;;;;;;4897970;29;20052;-72
2022/04/12 10:16:05;;;;;;;12.18;5.88;;;15.30;97.00;;;;;;4897746;29;20045;-72
2022/04/12 10:18:32;;;;;;;14.57;5.78;;;15.30;96.80;;;;;;4898024;29;20063;-73
2022/04/12 10:20:59;;;;;;;13.07;5.68;;;15.30;96.10;;;;;;4898124;29;20053;-72
2022/04/12 10:23:26;;;;;;;16.70;6.20;;;15.40;96.80;;;;;;4880502;29;20067;-72
2022/04/12 10:25:53;;;;;;;15.30;6.50;;;15.60;96.80;;;;;;4897621;29;20056;-71
2022/04/12 10:28:21;;;;;;;12.88;5.38;;;15.70;96.40;;;;;;4897357;29;20040;-72
2022/04/12 10:30:47;;;;;;;12.13;5.47;;;15.90;96.20;;;;;;4880891;29;20124;-71
2022/04/12 10:33:16;;;;;;;12.55;5.40;;;16.10;94.80;;;;;;4895913;29;20052;-69
2022/04/12 10:35:44;;;;;;;15.25;6.32;;;16.10;94.30;;;;;;4865135;29;20128;-69
2022/04/12 10:38:19;;;;;;;14.55;6.28;;;16.30;95.20;;;;;;4896885;29;20053;-67
2022/04/12 10:40:45;;;;;;;14.32;6.43;;;16.20;93.60;;;;;;4897406;29;20067;-72
2022/04/12 10:43:12;;;;;;;13.55;6.22;;;16.20;94.70;;;;;;4897193;29;20477;-72
2022/04/12 10:45:46;;;;;;;14.05;6.18;;;16.20;94.50;;;;;;4897517;29;20389;-72
2022/04/12 10:48:25;;;;;;;14.07;5.80;;;16.10;93.30;;;;;;4897118;29;20059;-71
2022/04/12 10:50:56;;;;;;;12.20;5.43;;;16.10;93.50;;;;;;4897239;29;20613;-73
2022/04/12 10:53:39;;;;;;;13.27;5.90;;;16.10;94.50;;;;;;4864895;29;20116;-74
2022/04/12 10:56:14;;;;;;;14.30;6.32;;;16.30;94.20;;;;;;4879739;29;20080;-72
2022/04/12 10:58:41;;;;;;;13.18;5.80;;;16.50;94.50;;;;;;4880479;29;20052;-72
2022/04/12 11:01:14;;;;;;;11.38;5.32;;;16.60;93.70;;;;;;4864227;29;20131;-73
2022/04/12 11:03:45;;;;;;;13.07;5.93;;;16.80;93.00;;;;;;4897172;29;20135;-73
2022/04/12 11:06:20;;;;;;;14.52;5.70;;;16.80;91.60;;;;;;4896604;29;20049;-71
2022/04/12 11:08:49;;;;;;;12.90;5.63;;;16.90;92.40;;;;;;4897288;29;20056;-72
2022/04/12 11:11:28;;;;;;;13.32;6.28;;;16.90;92.60;;;;;;4896032;29;20048;-72
2022/04/12 11:13:55;;;;;;;13.40;6.13;;;16.90;92.00;;;;;;4896903;29;20049;-69
2022/04/12 11:16:26;;;;;;;13.02;6.15;;;17.00;93.00;;;;;;4879731;29;20183;-74
2022/04/12 11:18:56;;;;;;;11.95;5.80;;;17.00;92.30;;;;;;4897066;29;20048;-72
2022/04/12 11:21:46;;;;;;;14.00;5.60;;;17.20;91.50;;;;;;4896278;29;20127;-72
2022/04/12 11:24:15;;;;;;;15.75;5.30;;;17.40;92.40;;;;;;4879689;29;20116;-73
2022/04/12 11:26:50;;;;;;;11.90;5.32;;;17.60;92.10;;;;;;4896246;29;20051;-72
2022/04/12 11:29:27;;;;;;;11.63;4.88;;;17.70;91.40;;;;;;4879373;29;20053;-72
2022/04/12 11:31:55;;;;;;;14.80;6.72;;;17.80;90.00;;;;;;4895831;29;20051;-72
2022/04/12 11:34:22;;;;;;;12.85;5.95;;;17.90;90.10;;;;;;4879305;29;20425;-69
2022/04/12 11:36:51;;;;;;;13.98;5.85;;;17.90;90.30;;;;;;4864539;29;20127;-72
2022/04/12 11:39:20;;;;;;;15.20;5.72;;;18.00;89.20;;;;;;4895995;29;20080;-71
2022/04/12 11:41:46;;;;;;;11.00;5.45;;;18.10;87.30;;;;;;4880215;29;20056;-72
2022/04/12 11:44:11;;;;;;;12.90;5.78;;;18.30;90.20;;;;;;4863230;29;20454;-72
2022/04/12 11:46:37;;;;;;;14.82;5.93;;;18.30;88.80;;;;;;4893187;29;20469;-73
2022/04/12 11:49:14;;;;;;;12.15;5.30;;;18.40;87.60;;;;;;4878700;29;20076;-72
2022/04/12 11:51:48;;;;;;;15.73;6.30;;;18.40;84.40;;;;;;4893273;29;20078;-73
2022/04/12 11:54:26;;;;;;;13.10;5.75;;;18.50;87.10;;;;;;4878689;29;20519;-70
2022/04/12 11:57:00;;;;;;;11.95;4.75;;;18.50;83.60;;;;;;4895893;29;20052;-73
2022/04/12 11:59:27;;;;;;;12.75;6.18;;;18.60;83.50;;;;;;4893075;29;20099;-70
2022/04/12 12:01:59;;;;;;;14.82;5.43;;;18.60;81.00;;;;;;4877838;29;20072;-69
2022/04/12 12:04:30;;;;;;;;;;;18.50;82.80;;;;;;4895239;29;20505;-70
2022/04/12 12:07:02;;;;;;;13.02;5.65;;;18.50;82.40;;;;;;4867486;29;19926;-70
2022/04/12 12:09:28;;;;;;;;;;;18.50;81.00;;;;;;4884911;29;20088;-69
2022/04/12 12:12:08;;;;;;;11.57;5.28;;;18.40;78.70;;;;;;4877991;29;19967;-68
2022/04/12 12:14:35;;;;;;;12.93;6.20;;;18.40;81.10;;;;;;4898957;29;20045;-69
2022/04/12 12:17:18;;;;;;;13.45;5.68;;;18.50;82.50;;;;;;4898781;29;20036;-71
2022/04/12 12:19:45;;;;;;;12.95;5.63;;;18.60;82.10;;;;;;4882255;29;20052;-71
2022/04/12 12:22:12;;;;;;;14.43;5.88;;;18.60;80.90;;;;;;4881770;29;20041;-70
2022/04/12 12:24:51;;;;;;;14.27;5.60;;;18.60;81.00;;;;;;4882081;29;20058;-69
2022/04/12 12:27:50;;;;;;;13.40;5.75;;;18.60;78.30;;;;;;4879575;29;20476;-70
2022/04/12 12:30:20;;;;;;;16.73;5.95;;;18.70;79.70;;;;;;4867070;29;20052;-72
2022/04/12 12:32:49;;;;;;;12.57;5.80;;;18.70;79.50;;;;;;4898134;29;20557;-70
2022/04/12 12:35:16;;;;;;;12.48;5.05;;;18.80;80.70;;;;;;4879056;29;20049;-70
2022/04/12 12:37:43;;;;;;;15.82;6.55;;;18.80;78.00;;;;;;4898852;29;20032;-73
2022/04/12 12:40:23;;;;;;;13.43;5.70;;;18.70;78.90;;;;;;4895963;29;20045;-70
2022/04/12 12:42:50;;;;;;;14.73;6.20;;;18.70;79.40;;;;;;4896650;29;20396;-70
2022/04/12 12:45:18;;;;;;;15.15;6.22;;;18.60;77.90;;;;;;4895052;29;20063;-71
2022/04/12 12:47:46;;;;;;;14.05;5.72;;;18.70;77.90;;;;;;4897004;29;20409;-76